Girvin, TX (79740)

4:26 AM CDT on August 31, 2014 (GMT -0500)
Fort Stockton-Pecos County | Change Station
CLOSE
Current Station
Airport
Location: Fort Stockton,
Elevation: 3009 ft
Nearby Weather Stations

Elev 3009 ft 30.91 °N, 102.92 °W | Updated 33 minutes ago

Clear
Clear
76 °F
Feels Like 76 °F
N
12
Wind Variable Wind from SSE

Today
High -- | Low -- °F
--% Chance of Precip.
Yesterday
High -- | Low -- °F
Precip. -- in
7:25 AM 8:13 PM
Waxing Crescent, 29% visible
Pressure 29.82 in
Visibility 10.0 miles
Clouds Clear
Dew Point 61 °F
Humidity 60%
Rainfall 0.00 in
Snow Depth Not available.
UV 0 out of 12
Pollen 10.00 out of 12
Air Quality Not available.
Flu Activity Not available.
METAR KFST 310853Z AUTO 16010KT 10SM CLR 24/16 A2998 RMK AO2 SLP098 T02440161 58003

More Conditions Fewer Conditions

Pressure 29.82 in
Visibility 10.0 miles
Clouds Clear
Dew Point 61 °F
Humidity 60%
Rainfall 0.00 in
Snow Depth Not available.
UV 0 out of 12
Pollen 10.00 out of 12
Air Quality Not available.
Flu Activity Not available.
METAR KFST 310853Z AUTO 16010KT 10SM CLR 24/16 A2998 RMK AO2 SLP098 T02440161 58003

More Conditions Fewer Conditions

10-Day Weather Forecast

Almanac

Astronomy

Aug. 31, 2014 Rise Set
Actual Time 7:25 AM CDT 8:13 PM CDT
Civil Twilight 7:00 AM CDT 8:38 PM CDT
Nautical Twilight 6:31 AM CDT 9:07 PM CDT
Astronomical Twilight 6:01 AM CDT 9:37 PM CDT
Moon 12:49 PM CDT 11:55 PM CDT
Length of Visible Light 13h 38m
Length of Day
12h 48m
Tomorrow will be 1m 48s shorter.
Waxing Crescent, 29% of the Moon is Illuminated
Today
Waxing Crescent
Sep 2
First Quarter
Sep 8
Full
Sep 15
Last Quarter
Sep 24
New

Today's Extremes

State Highs State Lows

Community

WunderPhotos

Upload Photos

1,748,834 photos uploaded!

Nearby

Snow Depth

Station Depth Elevation
No new snow has been reported.

Earthquake Activity

City Distance Mag. Time & Date
No recent earthquake activity has been reported nearby.
Minimum magnitude displayed is 2.5.

Coastal Water Temperatures

Place Temperature
No Stations Reporting

Nearby Weather Stations